createdAt,value
2019-01-10T00:00:38.399Z,4.67
2019-01-10T00:03:09.720Z,4.95
2019-01-10T00:05:41.646Z,4.35
2019-01-10T00:08:13.323Z,4.75
2019-01-10T00:10:44.655Z,4.55
2019-01-10T00:13:15.982Z,4.95
2019-01-10T00:15:47.695Z,4.10
2019-01-10T00:18:19.662Z,4.33
2019-01-10T00:20:51.534Z,5.20
2019-01-10T00:23:22.953Z,4.28
2019-01-10T00:25:54.317Z,4.37
2019-01-10T00:28:26.409Z,4.85
2019-01-10T00:30:57.790Z,4.33
2019-01-10T00:33:29.602Z,4.25
2019-01-10T00:36:01.159Z,4.45
2019-01-10T00:38:32.790Z,4.60
2019-01-10T00:41:04.479Z,4.42
2019-01-10T00:43:35.840Z,4.30
2019-01-10T00:46:07.691Z,4.20
2019-01-10T00:48:39.910Z,4.03
2019-01-10T00:51:11.274Z,4.50
2019-01-10T00:53:42.552Z,4.45
2019-01-10T00:56:14.092Z,4.75
2019-01-10T00:58:45.451Z,4.40
2019-01-10T01:01:16.895Z,4.55
2019-01-10T01:03:48.221Z,3.92
2019-01-10T01:06:19.771Z,3.80
2019-01-10T01:08:50.847Z,4.00
2019-01-10T01:11:22.972Z,4.37
2019-01-10T01:13:55.610Z,4.58
2019-01-10T01:16:27.085Z,4.00
2019-01-10T01:18:58.407Z,4.00
2019-01-10T01:21:30.626Z,3.95
2019-01-10T01:24:01.719Z,4.15
2019-01-10T01:26:33.339Z,3.37
2019-01-10T01:29:04.699Z,3.95
2019-01-10T01:31:36.458Z,3.70
2019-01-10T01:34:08.483Z,3.80
2019-01-10T01:36:39.859Z,4.03
2019-01-10T01:39:11.250Z,3.50
2019-01-10T01:41:42.648Z,3.27
2019-01-10T01:44:14.562Z,4.22
2019-01-10T01:46:46.128Z,3.80
2019-01-10T01:49:17.810Z,4.17
2019-01-10T01:51:49.066Z,3.80
2019-01-10T01:54:20.803Z,3.58
2019-01-10T01:56:52.644Z,3.83
2019-01-10T01:59:23.926Z,4.17
2019-01-10T02:01:55.277Z,3.65
2019-01-10T02:04:26.616Z,3.80
2019-01-10T02:06:57.648Z,3.58
2019-01-10T02:09:29.318Z,4.20
2019-01-10T02:12:01.150Z,3.90
2019-01-10T02:14:34.160Z,3.90
2019-01-10T02:17:05.992Z,3.42
2019-01-10T02:19:37.887Z,3.65
2019-01-10T02:22:09.712Z,4.00
2019-01-10T02:24:40.992Z,4.60
2019-01-10T02:27:12.083Z,3.27
2019-01-10T02:29:43.513Z,3.33
2019-01-10T02:32:15.349Z,3.50
2019-01-10T02:34:47.318Z,3.45
2019-01-10T02:37:18.967Z,3.47
2019-01-10T02:39:51.186Z,3.33
2019-01-10T02:42:23.339Z,3.45
2019-01-10T02:44:54.638Z,3.02
2019-01-10T02:47:26.388Z,3.40
2019-01-10T02:49:57.945Z,3.47
2019-01-10T02:52:29.898Z,3.30
2019-01-10T02:55:01.266Z,3.42
2019-01-10T02:57:32.708Z,3.30
2019-01-10T03:00:04.896Z,2.92
2019-01-10T03:02:36.387Z,2.80
2019-01-10T03:05:09.043Z,2.87
2019-01-10T03:07:40.926Z,3.15
2019-01-10T03:10:14.523Z,2.50
2019-01-10T03:12:46.391Z,2.60
2019-01-10T03:15:18.116Z,2.50
2019-01-10T03:17:50.090Z,2.90
2019-01-10T03:20:23.846Z,3.10
2019-01-10T03:22:55.804Z,3.30
2019-01-10T03:25:27.181Z,2.90
2019-01-10T03:27:58.503Z,2.80
2019-01-10T03:30:30.164Z,2.70
2019-01-10T03:33:02.322Z,3.02
2019-01-10T03:35:35.046Z,2.92
2019-01-10T03:38:06.547Z,3.25
2019-01-10T03:40:38.494Z,3.05
2019-01-10T03:43:09.889Z,2.83
2019-01-10T03:45:41.665Z,2.75
2019-01-10T03:48:13.815Z,2.60
2019-01-10T03:50:46.917Z,2.40
2019-01-10T03:53:19.033Z,2.37
2019-01-10T03:55:50.565Z,2.50
2019-01-10T03:58:21.921Z,2.72
2019-01-10T04:00:53.772Z,2.90
2019-01-10T04:03:25.479Z,3.00
2019-01-10T04:05:56.817Z,2.37
2019-01-10T04:08:28.219Z,3.00
2019-01-10T04:11:01.339Z,2.60
2019-01-10T04:13:32.878Z,2.52
2019-01-10T04:16:04.607Z,2.67
2019-01-10T04:18:37.330Z,2.60
2019-01-10T04:21:16.978Z,2.37
2019-01-10T04:23:42.347Z,2.62
2019-01-10T04:26:14.109Z,2.50
2019-01-10T04:28:46.111Z,2.33
2019-01-10T04:31:19.735Z,3.00
2019-01-10T04:33:51.795Z,2.40
2019-01-10T04:36:23.654Z,2.42
2019-01-10T04:38:55.812Z,2.52
2019-01-10T04:41:27.937Z,2.22
2019-01-10T04:44:06.925Z,2.40
2019-01-10T04:46:33.042Z,2.30
2019-01-10T04:49:04.884Z,2.05
2019-01-10T04:51:36.833Z,2.30
2019-01-10T04:54:08.700Z,2.05
2019-01-10T04:56:40.867Z,2.52
2019-01-10T04:59:12.817Z,2.08
2019-01-10T05:01:44.480Z,2.70
2019-01-10T05:04:15.818Z,2.30
2019-01-10T05:06:47.658Z,2.40
2019-01-10T05:09:19.592Z,2.22
2019-01-10T05:11:51.247Z,2.55
2019-01-10T05:14:22.579Z,2.90
2019-01-10T05:16:54.511Z,3.40
2019-01-10T05:19:26.862Z,3.33
2019-01-10T05:21:58.317Z,3.17
2019-01-10T05:24:29.983Z,2.62
2019-01-10T05:27:02.248Z,2.60
2019-01-10T05:29:33.702Z,2.72
2019-01-10T05:32:05.538Z,2.80
2019-01-10T05:34:37.183Z,3.33
2019-01-10T05:37:08.472Z,2.70
2019-01-10T05:39:47.412Z,2.35
2019-01-10T05:42:14.205Z,2.50
2019-01-10T05:44:46.417Z,2.40
2019-01-10T05:47:18.296Z,2.42
2019-01-10T05:49:50.015Z,2.77
2019-01-10T05:52:21.993Z,2.92
2019-01-10T05:55:01.769Z,2.87
2019-01-10T05:57:37.591Z,2.40
2019-01-10T06:00:23.171Z,2.27
2019-01-10T06:02:55.062Z,2.30
2019-01-10T06:05:27.383Z,2.47
2019-01-10T06:07:58.713Z,2.10
2019-01-10T06:10:30.731Z,2.40
2019-01-10T06:13:02.561Z,2.72
2019-01-10T06:15:34.188Z,2.50
2019-01-10T06:18:06.344Z,2.45
2019-01-10T06:23:40.784Z,2.47
2019-01-10T06:26:12.401Z,2.30
2019-01-10T06:28:45.374Z,2.47
2019-01-10T06:31:17.558Z,2.20
2019-01-10T06:33:49.353Z,2.17
2019-01-10T06:36:22.052Z,2.42
2019-01-10T06:38:53.382Z,2.62
2019-01-10T06:41:25.321Z,2.20
2019-01-10T06:43:56.858Z,2.40
2019-01-10T06:46:28.214Z,2.70
2019-01-10T06:48:59.229Z,2.17
2019-01-10T06:51:30.935Z,2.47
2019-01-10T06:54:02.065Z,2.83
2019-01-10T06:56:34.013Z,3.40
2019-01-10T06:59:05.588Z,3.20
2019-01-10T07:01:37.490Z,3.02
2019-01-10T07:04:09.106Z,3.27
2019-01-10T07:06:40.455Z,3.55
2019-01-10T07:09:11.624Z,2.83
2019-01-10T07:11:43.038Z,3.27
2019-01-10T07:14:14.703Z,3.25
2019-01-10T07:16:53.590Z,3.47
2019-01-10T07:19:45.003Z,3.00
2019-01-10T07:22:18.724Z,3.42
2019-01-10T07:24:55.256Z,3.40
2019-01-10T07:27:26.441Z,4.12
2019-01-10T07:29:59.614Z,4.08
2019-01-10T07:32:31.956Z,5.70
2019-01-10T07:35:07.398Z,5.70
2019-01-10T07:37:39.037Z,7.22
2019-01-10T07:40:17.408Z,4.83
2019-01-10T07:42:48.758Z,3.98
2019-01-10T07:45:26.548Z,3.30
2019-01-10T07:47:58.417Z,3.87
2019-01-10T07:50:33.690Z,3.60
2019-01-10T07:53:06.908Z,4.15
2019-01-10T07:55:39.032Z,3.52
2019-01-10T07:58:10.969Z,3.80
2019-01-10T08:00:42.304Z,4.15
2019-01-10T08:03:14.278Z,4.17
2019-01-10T08:05:46.076Z,3.95
2019-01-10T08:08:17.371Z,4.00
2019-01-10T08:10:48.759Z,3.62
2019-01-10T08:13:20.408Z,3.67
2019-01-10T08:15:52.249Z,4.00
2019-01-10T08:18:23.612Z,4.17
2019-01-10T08:20:55.232Z,4.10
2019-01-10T08:23:26.712Z,3.70
2019-01-10T08:25:58.391Z,4.42
2019-01-10T08:28:29.989Z,4.10
2019-01-10T08:31:02.878Z,4.03
2019-01-10T08:33:34.820Z,3.77
2019-01-10T08:36:06.509Z,4.22
2019-01-10T08:38:38.665Z,4.17
2019-01-10T08:41:10.083Z,4.20
2019-01-10T08:43:41.254Z,4.00
2019-01-10T08:46:14.238Z,3.90
2019-01-10T08:48:46.008Z,4.75
2019-01-10T08:51:17.032Z,4.08
2019-01-10T08:53:53.785Z,4.62
2019-01-10T08:56:21.515Z,13.22
2019-01-10T08:58:53.241Z,5.08
2019-01-10T09:01:24.625Z,5.55
2019-01-10T09:03:57.210Z,5.08
2019-01-10T09:06:28.629Z,5.40
2019-01-10T09:09:01.828Z,5.03
2019-01-10T09:11:34.120Z,4.15
2019-01-10T09:14:05.839Z,5.17
2019-01-10T09:16:37.188Z,5.40
2019-01-10T09:19:09.268Z,4.67
2019-01-10T09:21:40.946Z,6.80
2019-01-10T09:24:12.080Z,5.53
2019-01-10T09:26:43.831Z,5.60
2019-01-10T09:29:15.546Z,4.97
2019-01-10T09:31:47.106Z,5.12
2019-01-10T09:34:24.687Z,5.53
2019-01-10T09:36:51.967Z,4.60
2019-01-10T09:39:24.283Z,4.60
2019-01-10T09:41:56.003Z,4.97
2019-01-10T09:44:27.808Z,5.55
2019-01-10T09:46:59.727Z,6.17
2019-01-10T09:49:31.465Z,4.60
2019-01-10T09:52:03.459Z,4.92
2019-01-10T09:54:34.970Z,4.90
2019-01-10T09:57:07.227Z,5.53
2019-01-10T09:59:38.511Z,4.42
2019-01-10T10:02:10.266Z,4.60
2019-01-10T10:04:41.337Z,4.55
2019-01-10T10:07:13.506Z,7.20
2019-01-10T10:09:44.856Z,10.23
2019-01-10T10:12:16.175Z,5.70
2019-01-10T10:14:47.528Z,6.45
2019-01-10T10:17:19.680Z,5.10
2019-01-10T10:19:51.594Z,5.85
2019-01-10T10:22:23.381Z,5.33
2019-01-10T10:24:54.846Z,4.78
2019-01-10T10:27:25.859Z,5.85
2019-01-10T10:29:57.308Z,5.60
2019-01-10T10:32:29.223Z,5.45
2019-01-10T10:35:01.697Z,5.37
2019-01-10T10:37:33.433Z,5.35
2019-01-10T10:40:06.412Z,5.05
2019-01-10T10:42:38.169Z,5.70
2019-01-10T10:45:12.302Z,6.40
2019-01-10T10:47:43.550Z,5.37
2019-01-10T10:50:21.208Z,5.50
2019-01-10T10:52:52.595Z,4.62
2019-01-10T10:55:24.242Z,4.60
2019-01-10T10:57:55.922Z,4.37
2019-01-10T11:00:30.382Z,3.45
2019-01-10T11:03:01.933Z,4.22
2019-01-10T11:05:33.041Z,4.20
2019-01-10T11:08:04.618Z,5.40
2019-01-10T11:10:36.086Z,5.15
2019-01-10T11:13:07.158Z,5.03
2019-01-10T11:15:39.165Z,4.85
2019-01-10T11:18:10.841Z,6.47
2019-01-10T11:20:42.437Z,4.78
2019-01-10T11:23:14.585Z,5.00
2019-01-10T11:25:45.933Z,5.10
2019-01-10T11:28:17.661Z,5.08
2019-01-10T11:30:49.645Z,5.17
2019-01-10T11:33:20.710Z,8.83
2019-01-10T11:35:52.222Z,11.45
2019-01-10T11:38:23.483Z,9.08
2019-01-10T11:40:55.235Z,10.75
2019-01-10T11:43:27.247Z,11.22
2019-01-10T11:45:59.262Z,10.72
2019-01-10T11:48:31.133Z,7.58
2019-01-10T11:51:02.757Z,3.55
2019-01-10T11:53:35.595Z,3.17
2019-01-10T11:56:07.732Z,3.60
2019-01-10T11:58:39.796Z,3.60
2019-01-10T12:01:11.829Z,3.42
2019-01-10T12:03:43.431Z,7.15
2019-01-10T12:06:15.045Z,5.37
2019-01-10T12:08:47.156Z,5.15
2019-01-10T12:11:18.510Z,5.78
2019-01-10T12:13:50.341Z,3.47
2019-01-10T12:16:28.531Z,3.12
2019-01-10T12:18:59.413Z,3.05
2019-01-10T12:21:29.820Z,2.77
2019-01-10T12:24:01.159Z,2.33
2019-01-10T12:26:32.513Z,2.72
2019-01-10T12:29:04.803Z,2.30
2019-01-10T12:31:36.138Z,2.65
2019-01-10T12:34:07.774Z,2.92
2019-01-10T12:36:39.752Z,2.40
2019-01-10T12:39:11.161Z,2.65
2019-01-10T12:41:42.561Z,2.72
2019-01-10T12:44:13.890Z,2.55
2019-01-10T12:46:45.746Z,2.60
2019-01-10T12:49:17.108Z,3.15
2019-01-10T12:51:48.973Z,3.90
2019-01-10T12:54:22.031Z,3.52
2019-01-10T12:56:53.684Z,3.08
2019-01-10T12:59:24.693Z,2.87
2019-01-10T13:01:56.804Z,3.20
2019-01-10T13:04:28.174Z,3.25
2019-01-10T13:06:59.494Z,3.87
2019-01-10T13:09:31.140Z,4.40
2019-01-10T13:12:03.297Z,4.40
2019-01-10T13:14:34.640Z,3.87
2019-01-10T13:17:06.007Z,3.92
2019-01-10T13:19:37.747Z,3.50
2019-01-10T13:22:10.952Z,3.25
2019-01-10T13:24:44.193Z,3.80
2019-01-10T13:27:15.553Z,3.87
2019-01-10T13:29:47.387Z,3.90
2019-01-10T13:32:18.802Z,6.85
2019-01-10T13:34:50.752Z,12.28
2019-01-10T13:37:22.515Z,9.40
2019-01-10T13:39:54.079Z,12.78
2019-01-10T13:42:27.377Z,8.65
2019-01-10T13:44:59.253Z,14.30
2019-01-10T13:47:30.987Z,10.03
2019-01-10T13:50:03.177Z,6.47
2019-01-10T13:52:35.109Z,5.12
2019-01-10T13:55:07.521Z,7.97
2019-01-10T13:57:39.127Z,3.92
2019-01-10T14:00:17.000Z,3.58
2019-01-10T14:02:48.738Z,3.02
2019-01-10T14:05:20.534Z,3.27
2019-01-10T14:07:52.173Z,2.90
2019-01-10T14:10:24.174Z,3.75
2019-01-10T14:12:55.595Z,5.78
2019-01-10T14:15:32.853Z,3.87
2019-01-10T14:18:05.195Z,3.58
2019-01-10T14:20:36.827Z,3.10
2019-01-10T14:23:09.136Z,3.80
2019-01-10T14:25:40.171Z,16.25
2019-01-10T14:28:11.421Z,17.00
2019-01-10T14:30:43.347Z,7.78
2019-01-10T14:33:15.778Z,2.95
2019-01-10T14:35:47.147Z,2.90
2019-01-10T14:38:19.451Z,2.50
2019-01-10T14:40:51.790Z,2.77
2019-01-10T14:43:23.437Z,3.37
2019-01-10T14:45:54.871Z,2.92
2019-01-10T14:48:26.719Z,3.00
2019-01-10T14:50:59.344Z,2.60
2019-01-10T14:53:31.586Z,3.60
2019-01-10T14:56:03.383Z,2.72
2019-01-10T14:58:34.989Z,2.60
2019-01-10T15:01:06.715Z,2.95
2019-01-10T15:03:37.729Z,2.90
2019-01-10T15:06:09.040Z,2.72
2019-01-10T15:08:40.380Z,2.70
2019-01-10T15:11:11.944Z,2.47
2019-01-10T15:13:43.833Z,2.80
2019-01-10T15:16:15.763Z,2.80
2019-01-10T15:18:47.860Z,7.60
2019-01-10T15:21:19.817Z,4.25
2019-01-10T15:23:51.348Z,6.35
2019-01-10T15:26:22.898Z,6.40
2019-01-10T15:28:54.578Z,7.58
2019-01-10T15:31:26.214Z,5.30
2019-01-10T15:33:57.231Z,7.33
2019-01-10T15:36:28.824Z,6.97
2019-01-10T15:38:59.826Z,12.80
2019-01-10T15:41:31.190Z,10.13
2019-01-10T15:44:02.932Z,10.53
2019-01-10T15:46:34.746Z,7.00
2019-01-10T15:49:06.442Z,5.20
2019-01-10T15:51:37.691Z,6.03
2019-01-10T15:54:08.966Z,6.05
2019-01-10T15:56:40.636Z,6.92
2019-01-10T15:59:12.268Z,9.68
2019-01-10T16:01:43.964Z,9.00
2019-01-10T16:04:15.905Z,8.53
2019-01-10T16:06:47.339Z,8.83
2019-01-10T16:09:18.986Z,10.00
2019-01-10T16:11:50.258Z,11.05
2019-01-10T16:14:22.002Z,9.63
2019-01-10T16:16:54.073Z,9.45
2019-01-10T16:19:26.232Z,11.88
2019-01-10T16:21:58.504Z,12.88
2019-01-10T16:24:30.213Z,14.87
2019-01-10T16:27:02.104Z,15.25
2019-01-10T16:29:33.646Z,16.85
2019-01-10T16:32:05.457Z,14.33
2019-01-10T16:34:37.079Z,12.18
2019-01-10T16:37:09.193Z,11.83
2019-01-10T16:39:40.807Z,11.05
2019-01-10T16:42:11.829Z,8.85
2019-01-10T16:44:43.675Z,8.20
2019-01-10T16:47:14.731Z,7.28
2019-01-10T16:49:46.396Z,6.40
2019-01-10T16:52:18.052Z,6.22
2019-01-10T16:54:49.414Z,4.97
2019-01-10T16:57:20.761Z,5.22
2019-01-10T16:59:52.105Z,6.25
2019-01-10T17:02:24.080Z,5.75
2019-01-10T17:04:57.148Z,7.97
2019-01-10T17:07:28.534Z,8.38
2019-01-10T17:10:00.242Z,6.08
2019-01-10T17:12:32.945Z,7.08
2019-01-10T17:15:04.990Z,5.42
2019-01-10T17:17:37.794Z,7.35
2019-01-10T17:20:12.734Z,4.75
2019-01-10T17:22:43.856Z,6.20
2019-01-10T17:25:15.950Z,6.08
2019-01-10T17:27:47.402Z,5.97
2019-01-10T17:30:27.985Z,6.10
2019-01-10T17:32:59.256Z,6.28
2019-01-10T17:35:34.623Z,7.65
2019-01-10T17:38:06.890Z,6.08
2019-01-10T17:40:38.660Z,5.83
2019-01-10T17:43:09.833Z,6.03
2019-01-10T17:45:41.490Z,6.08
2019-01-10T17:48:13.670Z,5.70
2019-01-10T17:50:45.550Z,6.22
2019-01-10T17:53:17.123Z,7.12
2019-01-10T17:55:48.998Z,7.12
2019-01-10T17:58:20.639Z,8.18
2019-01-10T18:00:52.336Z,8.30
2019-01-10T18:03:23.829Z,75.35
2019-01-10T18:05:56.054Z,36.85
2019-01-10T18:08:27.671Z,11.60
2019-01-10T18:10:59.321Z,12.75
2019-01-10T18:13:31.345Z,8.05
2019-01-10T18:16:03.008Z,8.18
2019-01-10T18:18:34.697Z,8.03
2019-01-10T18:21:06.630Z,8.25
2019-01-10T18:23:37.687Z,8.80
2019-01-10T18:26:09.147Z,7.40
2019-01-10T18:28:40.894Z,7.12
2019-01-10T18:31:12.484Z,6.75
2019-01-10T18:33:44.002Z,8.35
2019-01-10T18:36:15.800Z,7.33
2019-01-10T18:38:47.922Z,8.28
2019-01-10T18:41:19.243Z,9.53
2019-01-10T18:43:50.518Z,8.10
2019-01-10T18:46:22.453Z,7.45
2019-01-10T18:48:53.847Z,8.08
2019-01-10T18:51:25.438Z,7.70
2019-01-10T18:53:57.347Z,7.45
2019-01-10T18:56:29.123Z,6.58
2019-01-10T18:59:00.838Z,7.15
2019-01-10T19:01:32.199Z,6.15
2019-01-10T19:04:03.783Z,6.25
2019-01-10T19:06:35.470Z,6.85
2019-01-10T19:09:10.120Z,5.28
2019-01-10T19:11:42.157Z,5.37
2019-01-10T19:14:14.089Z,5.50
2019-01-10T19:16:45.397Z,6.47
2019-01-10T19:19:16.402Z,6.47
2019-01-10T19:21:48.012Z,6.22
2019-01-10T19:24:19.843Z,5.20
2019-01-10T19:26:51.920Z,5.37
2019-01-10T19:29:23.202Z,5.00
2019-01-10T19:31:54.851Z,4.55
2019-01-10T19:34:26.151Z,4.58
2019-01-10T19:36:57.695Z,4.87
2019-01-10T19:39:29.497Z,4.97
2019-01-10T19:42:01.130Z,4.37
2019-01-10T19:44:33.001Z,4.97
2019-01-10T19:47:04.518Z,5.37
2019-01-10T19:49:35.781Z,6.45
2019-01-10T19:52:07.068Z,5.65
2019-01-10T19:54:38.123Z,6.08
2019-01-10T19:57:10.315Z,5.78
2019-01-10T19:59:41.591Z,6.83
2019-01-10T20:02:13.585Z,6.78
2019-01-10T20:04:44.943Z,6.65
2019-01-10T20:07:16.625Z,5.85
2019-01-10T20:09:51.726Z,6.75
2019-01-10T20:12:23.881Z,6.62
2019-01-10T20:14:55.299Z,7.45
2019-01-10T20:17:27.094Z,7.80
2019-01-10T20:19:58.956Z,7.80
2019-01-10T20:22:30.002Z,7.80
2019-01-10T20:25:01.531Z,7.45
2019-01-10T20:27:33.318Z,8.23
2019-01-10T20:30:05.722Z,7.85
2019-01-10T20:32:37.513Z,8.13
2019-01-10T20:35:09.353Z,8.75
2019-01-10T20:37:41.982Z,8.20
2019-01-10T20:40:13.855Z,8.58
2019-01-10T20:42:45.747Z,9.68
2019-01-10T20:45:17.016Z,9.00
2019-01-10T20:47:49.519Z,9.80
2019-01-10T20:50:21.028Z,10.30
2019-01-10T20:52:52.371Z,8.65
2019-01-10T20:55:23.751Z,7.72
2019-01-10T20:57:55.497Z,7.33
2019-01-10T21:00:29.185Z,8.05
2019-01-10T21:03:00.574Z,7.78
2019-01-10T21:05:32.489Z,7.10
2019-01-10T21:08:03.857Z,7.08
2019-01-10T21:10:35.920Z,8.43
2019-01-10T21:13:07.172Z,7.15
2019-01-10T21:15:38.791Z,6.37
2019-01-10T21:18:10.881Z,6.58
2019-01-10T21:20:41.966Z,6.53
2019-01-10T21:23:12.968Z,7.37
2019-01-10T21:25:44.047Z,6.67
2019-01-10T21:28:15.363Z,7.17
2019-01-10T21:30:47.017Z,7.50
2019-01-10T21:33:18.975Z,7.30
2019-01-10T21:35:50.632Z,6.55
2019-01-10T21:38:22.579Z,7.75
2019-01-10T21:40:54.314Z,7.50
2019-01-10T21:43:26.025Z,7.92
2019-01-10T21:45:57.599Z,7.78
2019-01-10T21:48:34.873Z,8.40
2019-01-10T21:51:02.150Z,8.20
2019-01-10T21:53:33.590Z,8.40
2019-01-10T21:56:07.415Z,9.95
2019-01-10T21:58:39.405Z,8.13
2019-01-10T22:01:11.525Z,8.03
2019-01-10T22:03:43.165Z,11.48
2019-01-10T22:06:14.297Z,8.40
2019-01-10T22:08:45.685Z,8.50
2019-01-10T22:11:17.791Z,8.05
2019-01-10T22:13:49.454Z,7.80
2019-01-10T22:16:22.212Z,7.90
2019-01-10T22:18:54.198Z,7.85
2019-01-10T22:21:25.494Z,7.50
2019-01-10T22:23:57.160Z,7.33
2019-01-10T22:26:28.506Z,7.20
2019-01-10T22:28:59.857Z,5.78
2019-01-10T22:31:31.194Z,6.30
2019-01-10T22:34:02.983Z,5.65
2019-01-10T22:36:34.481Z,6.22
2019-01-10T22:39:09.014Z,6.00
2019-01-10T22:41:41.271Z,6.50
2019-01-10T22:44:12.704Z,6.33
2019-01-10T22:46:44.429Z,6.65
2019-01-10T22:49:15.687Z,6.05
2019-01-10T22:51:47.351Z,6.25
2019-01-10T22:54:18.797Z,6.30
2019-01-10T22:56:50.967Z,5.95
2019-01-10T22:59:23.141Z,5.78
2019-01-10T23:01:58.032Z,6.72
2019-01-10T23:04:36.927Z,6.35
2019-01-10T23:07:21.664Z,6.15
2019-01-10T23:09:56.793Z,6.70
2019-01-10T23:12:34.939Z,6.55
2019-01-10T23:15:30.208Z,6.30
2019-01-10T23:18:02.042Z,6.35
2019-01-10T23:20:34.013Z,6.40
2019-01-10T23:23:09.122Z,6.47
2019-01-10T23:25:40.935Z,7.22
2019-01-10T23:28:12.361Z,6.50
2019-01-10T23:30:52.878Z,6.20
2019-01-10T23:33:25.389Z,6.53
2019-01-10T23:36:02.891Z,6.80
2019-01-10T23:38:34.224Z,6.80
2019-01-10T23:41:06.486Z,6.47
2019-01-10T23:43:37.839Z,6.78
2019-01-10T23:46:09.570Z,6.62
2019-01-10T23:48:41.449Z,6.60
2019-01-10T23:51:13.008Z,7.00
2019-01-10T23:53:44.325Z,6.75
2019-01-10T23:56:16.091Z,7.30
2019-01-10T23:58:47.442Z,6.10
